Vremea acum in Târgu Lăpuș - Romania

Vrei sa afli care e starea vremii acum in Maramures - Romania? Dorim sa iti furnizam starea vremii pentru Maramures - Romania. Starea vremii Maramures - Romania pentru astazi.

Vremea acum in Târgu Lăpuș

Temperatura: 24.2 °C

Este: Senin
Se simte ca: 25.2 °C
Innorat: 0 %
Precipitatii: 0 %
Presiune atmosferica: 1018 hPa
Umiditate: 27%
Vizibilitate: 10 km
Vantul bate din W cu 7.9 km/h

Evolutia vremii in Târgu Lăpuș pe ore

Ora: 16:00
Senin
Temperatura: 21.2°C
Sansa de precipitatii: 0%
Ora Descriere Temp Se simte Precipitatii Umiditate Vant
00:00Senin7.3°6.8°0%83%ENE 4.7 KM/H
01:00Senin6.9°6.3°0%85%E 5 KM/H
02:00Senin6.5°0%86%E 4.3 KM/H
03:00Senin6.1°5.7°0%87%E 4 KM/H
04:00Senin5.8°5.6°0%88%E 3.6 KM/H
05:00Senin5.5°5.3°0%89%E 3.6 KM/H
06:00Senin5.3°5.1°0%89%E 3.6 KM/H
07:00Senin6.4°6.3°0%86%E 3.6 KM/H
08:00Senin11.7°11.7°0%76%ESE 1.8 KM/H
09:00Senin14.1°14.1°0%68%W 1.1 KM/H
10:00Senin16.1°16.1°0%62%W 3.6 KM/H
11:00Senin17.8°17.8°0%56%WNW 4.7 KM/H
12:00Senin19.1°19.1°0%51%WNW 5.4 KM/H
13:00Senin20.1°20.1°0%49%W 6.8 KM/H
14:00Senin24.2°20.7°0%27%W 7.9 KM/H
15:00Senin21.1°21.1°0%47%W 9 KM/H
16:00Senin21.2°21.2°0%48%WNW 10.1 KM/H
17:00Senin20.9°20.9°0%49%WNW 10.8 KM/H
18:00Senin20.3°20.3°0%53%NW 9.7 KM/H
19:00Senin19.2°19.2°0%62%NW 6.8 KM/H
20:00Senin13.9°14.1°0%72%NNW 5 KM/H
21:00Senin11.5°11.5°0%77%NNE 4.7 KM/H
22:00Senin10.8°10.7°0%78%ENE 4.7 KM/H
23:00Senin10.3°10.2°0%79%ENE 4.7 KM/H




tutorials